sensor_id;sensor_type;location;lat;lon;timestamp;P1;durP1;ratioP1;P2;durP2;ratioP2
20462;SDS011;10390;53.566;9.980;2022-12-18T00:01:13;8.13;;;5.13;;
20462;SDS011;10390;53.566;9.980;2022-12-18T00:03:44;7.57;;;5.10;;
20462;SDS011;10390;53.566;9.980;2022-12-18T00:06:11;9.13;;;5.50;;
20462;SDS011;10390;53.566;9.980;2022-12-18T00:08:38;8.15;;;5.00;;
20462;SDS011;10390;53.566;9.980;2022-12-18T00:11:05;8.25;;;5.35;;
20462;SDS011;10390;53.566;9.980;2022-12-18T00:13:32;8.50;;;5.07;;
20462;SDS011;10390;53.566;9.980;2022-12-18T00:16:04;8.38;;;5.45;;
20462;SDS011;10390;53.566;9.980;2022-12-18T00:18:32;8.93;;;5.30;;
20462;SDS011;10390;53.566;9.980;2022-12-18T00:20:58;8.80;;;5.55;;
20462;SDS011;10390;53.566;9.980;2022-12-18T00:23:28;9.07;;;5.25;;
20462;SDS011;10390;53.566;9.980;2022-12-18T00:25:58;8.55;;;5.72;;
20462;SDS011;10390;53.566;9.980;2022-12-18T00:28:27;7.43;;;5.10;;
20462;SDS011;10390;53.566;9.980;2022-12-18T00:31:03;7.50;;;5.30;;
20462;SDS011;10390;53.566;9.980;2022-12-18T00:33:36;7.65;;;5.20;;
20462;SDS011;10390;53.566;9.980;2022-12-18T00:36:05;8.02;;;5.53;;
20462;SDS011;10390;53.566;9.980;2022-12-18T00:38:36;8.45;;;5.32;;
20462;SDS011;10390;53.566;9.980;2022-12-18T00:41:02;8.15;;;4.57;;
20462;SDS011;10390;53.566;9.980;2022-12-18T00:43:28;8.35;;;4.85;;
20462;SDS011;10390;53.566;9.980;2022-12-18T00:45:54;7.10;;;4.68;;
20462;SDS011;10390;53.566;9.980;2022-12-18T00:48:19;7.47;;;4.53;;
20462;SDS011;10390;53.566;9.980;2022-12-18T00:50:47;8.18;;;4.43;;
20462;SDS011;10390;53.566;9.980;2022-12-18T00:53:13;6.82;;;4.57;;
20462;SDS011;10390;53.566;9.980;2022-12-18T00:55:39;6.72;;;4.63;;
20462;SDS011;10390;53.566;9.980;2022-12-18T00:58:05;7.00;;;5.00;;
20462;SDS011;10390;53.566;9.980;2022-12-18T01:00:32;7.20;;;4.70;;
20462;SDS011;10390;53.566;9.980;2022-12-18T01:02:58;7.13;;;4.70;;
20462;SDS011;10390;53.566;9.980;2022-12-18T01:05:23;7.50;;;5.00;;
20462;SDS011;10390;53.566;9.980;2022-12-18T01:07:50;7.55;;;4.88;;
20462;SDS011;10390;53.566;9.980;2022-12-18T01:10:16;7.05;;;4.90;;
20462;SDS011;10390;53.566;9.980;2022-12-18T01:12:42;7.88;;;4.90;;
20462;SDS011;10390;53.566;9.980;2022-12-18T01:15:08;8.02;;;4.97;;
20462;SDS011;10390;53.566;9.980;2022-12-18T01:17:34;6.97;;;5.03;;
20462;SDS011;10390;53.566;9.980;2022-12-18T01:20:00;8.48;;;5.25;;
20462;SDS011;10390;53.566;9.980;2022-12-18T01:22:25;6.90;;;4.53;;
20462;SDS011;10390;53.566;9.980;2022-12-18T01:24:51;7.20;;;4.95;;
20462;SDS011;10390;53.566;9.980;2022-12-18T01:27:17;7.57;;;5.13;;
20462;SDS011;10390;53.566;9.980;2022-12-18T01:29:42;8.02;;;5.03;;
20462;SDS011;10390;53.566;9.980;2022-12-18T01:32:08;7.57;;;4.90;;
20462;SDS011;10390;53.566;9.980;2022-12-18T01:34:35;7.35;;;4.90;;
20462;SDS011;10390;53.566;9.980;2022-12-18T01:37:02;6.85;;;4.93;;
20462;SDS011;10390;53.566;9.980;2022-12-18T01:39:29;7.15;;;4.78;;
20462;SDS011;10390;53.566;9.980;2022-12-18T01:41:55;7.30;;;4.47;;
20462;SDS011;10390;53.566;9.980;2022-12-18T01:47:22;6.85;;;4.40;;
20462;SDS011;10390;53.566;9.980;2022-12-18T01:50:47;6.68;;;4.30;;
20462;SDS011;10390;53.566;9.980;2022-12-18T01:52:58;7.07;;;4.25;;
20462;SDS011;10390;53.566;9.980;2022-12-18T01:55:29;8.13;;;4.85;;
20462;SDS011;10390;53.566;9.980;2022-12-18T01:58:00;6.55;;;3.95;;
20462;SDS011;10390;53.566;9.980;2022-12-18T02:00:26;7.43;;;5.03;;
20462;SDS011;10390;53.566;9.980;2022-12-18T02:02:53;6.45;;;4.38;;
20462;SDS011;10390;53.566;9.980;2022-12-18T02:05:21;6.00;;;3.85;;
20462;SDS011;10390;53.566;9.980;2022-12-18T02:10:33;6.72;;;4.50;;
20462;SDS011;10390;53.566;9.980;2022-12-18T02:15:38;7.35;;;4.47;;
20462;SDS011;10390;53.566;9.980;2022-12-18T02:18:18;7.32;;;4.53;;
20462;SDS011;10390;53.566;9.980;2022-12-18T02:20:53;7.20;;;4.63;;
20462;SDS011;10390;53.566;9.980;2022-12-18T02:23:40;8.90;;;4.65;;
20462;SDS011;10390;53.566;9.980;2022-12-18T02:28:46;7.20;;;4.80;;
20462;SDS011;10390;53.566;9.980;2022-12-18T02:31:18;6.57;;;4.55;;
20462;SDS011;10390;53.566;9.980;2022-12-18T02:33:53;8.20;;;4.72;;
20462;SDS011;10390;53.566;9.980;2022-12-18T02:36:21;6.82;;;4.28;;
20462;SDS011;10390;53.566;9.980;2022-12-18T02:38:48;5.90;;;4.00;;
20462;SDS011;10390;53.566;9.980;2022-12-18T02:41:15;6.05;;;4.32;;
20462;SDS011;10390;53.566;9.980;2022-12-18T02:43:46;6.22;;;4.13;;
20462;SDS011;10390;53.566;9.980;2022-12-18T02:49:05;5.97;;;3.90;;
20462;SDS011;10390;53.566;9.980;2022-12-18T02:51:55;6.18;;;3.92;;
20462;SDS011;10390;53.566;9.980;2022-12-18T03:00:06;6.50;;;4.10;;
20462;SDS011;10390;53.566;9.980;2022-12-18T03:02:45;6.85;;;4.32;;
20462;SDS011;10390;53.566;9.980;2022-12-18T03:05:16;6.60;;;4.22;;
20462;SDS011;10390;53.566;9.980;2022-12-18T03:07:51;7.60;;;4.43;;
20462;SDS011;10390;53.566;9.980;2022-12-18T03:10:24;5.78;;;3.92;;
20462;SDS011;10390;53.566;9.980;2022-12-18T03:12:56;6.40;;;4.13;;
20462;SDS011;10390;53.566;9.980;2022-12-18T03:15:34;7.10;;;4.35;;
20462;SDS011;10390;53.566;9.980;2022-12-18T03:18:11;6.78;;;4.40;;
20462;SDS011;10390;53.566;9.980;2022-12-18T03:20:42;7.03;;;4.18;;
20462;SDS011;10390;53.566;9.980;2022-12-18T03:23:11;6.40;;;4.40;;
20462;SDS011;10390;53.566;9.980;2022-12-18T03:25:41;6.25;;;4.07;;
20462;SDS011;10390;53.566;9.980;2022-12-18T03:28:13;5.88;;;4.07;;
20462;SDS011;10390;53.566;9.980;2022-12-18T03:30:41;6.22;;;3.80;;
20462;SDS011;10390;53.566;9.980;2022-12-18T03:33:14;6.93;;;4.50;;
20462;SDS011;10390;53.566;9.980;2022-12-18T03:36:07;5.70;;;3.88;;
20462;SDS011;10390;53.566;9.980;2022-12-18T03:38:33;6.20;;;4.25;;
20462;SDS011;10390;53.566;9.980;2022-12-18T03:44:07;6.13;;;3.80;;
20462;SDS011;10390;53.566;9.980;2022-12-18T03:49:39;5.75;;;3.92;;
20462;SDS011;10390;53.566;9.980;2022-12-18T03:52:44;5.45;;;3.60;;
20462;SDS011;10390;53.566;9.980;2022-12-18T03:55:14;6.45;;;4.05;;
20462;SDS011;10390;53.566;9.980;2022-12-18T03:57:42;5.57;;;4.00;;
20462;SDS011;10390;53.566;9.980;2022-12-18T04:00:10;5.63;;;3.70;;
20462;SDS011;10390;53.566;9.980;2022-12-18T04:02:38;5.55;;;3.70;;
20462;SDS011;10390;53.566;9.980;2022-12-18T04:05:07;5.60;;;3.60;;
20462;SDS011;10390;53.566;9.980;2022-12-18T04:07:35;6.20;;;3.65;;
20462;SDS011;10390;53.566;9.980;2022-12-18T04:10:02;5.65;;;3.80;;
20462;SDS011;10390;53.566;9.980;2022-12-18T04:12:30;5.22;;;3.83;;
20462;SDS011;10390;53.566;9.980;2022-12-18T04:14:55;6.60;;;4.00;;
20462;SDS011;10390;53.566;9.980;2022-12-18T04:17:21;6.15;;;3.85;;
20462;SDS011;10390;53.566;9.980;2022-12-18T04:19:47;6.97;;;4.40;;
20462;SDS011;10390;53.566;9.980;2022-12-18T04:22:13;6.28;;;4.50;;
20462;SDS011;10390;53.566;9.980;2022-12-18T04:24:39;6.10;;;4.45;;
20462;SDS011;10390;53.566;9.980;2022-12-18T04:27:04;5.90;;;4.38;;
20462;SDS011;10390;53.566;9.980;2022-12-18T04:29:30;5.90;;;4.47;;
20462;SDS011;10390;53.566;9.980;2022-12-18T04:31:56;5.57;;;4.07;;
20462;SDS011;10390;53.566;9.980;2022-12-18T04:34:21;6.22;;;4.40;;
20462;SDS011;10390;53.566;9.980;2022-12-18T04:36:47;6.88;;;4.88;;
20462;SDS011;10390;53.566;9.980;2022-12-18T04:39:13;5.57;;;3.88;;
20462;SDS011;10390;53.566;9.980;2022-12-18T04:41:41;6.43;;;4.57;;
20462;SDS011;10390;53.566;9.980;2022-12-18T04:44:07;5.70;;;4.22;;
20462;SDS011;10390;53.566;9.980;2022-12-18T04:46:33;6.38;;;4.57;;
20462;SDS011;10390;53.566;9.980;2022-12-18T04:48:58;6.20;;;4.50;;
20462;SDS011;10390;53.566;9.980;2022-12-18T04:51:24;6.28;;;4.57;;
20462;SDS011;10390;53.566;9.980;2022-12-18T04:53:50;5.82;;;4.00;;
20462;SDS011;10390;53.566;9.980;2022-12-18T04:56:15;6.70;;;4.10;;
20462;SDS011;10390;53.566;9.980;2022-12-18T04:58:42;5.95;;;4.10;;
20462;SDS011;10390;53.566;9.980;2022-12-18T05:01:09;7.20;;;4.38;;
20462;SDS011;10390;53.566;9.980;2022-12-18T05:03:36;5.55;;;4.10;;
20462;SDS011;10390;53.566;9.980;2022-12-18T05:06:03;6.18;;;4.53;;
20462;SDS011;10390;53.566;9.980;2022-12-18T05:08:30;6.40;;;4.20;;
20462;SDS011;10390;53.566;9.980;2022-12-18T05:10:59;5.28;;;3.88;;
20462;SDS011;10390;53.566;9.980;2022-12-18T05:13:29;5.47;;;3.78;;
20462;SDS011;10390;53.566;9.980;2022-12-18T05:15:55;6.13;;;4.05;;
20462;SDS011;10390;53.566;9.980;2022-12-18T05:18:24;6.45;;;4.50;;
20462;SDS011;10390;53.566;9.980;2022-12-18T05:20:51;5.40;;;4.05;;
20462;SDS011;10390;53.566;9.980;2022-12-18T05:23:17;5.90;;;4.15;;
20462;SDS011;10390;53.566;9.980;2022-12-18T05:25:46;5.80;;;4.00;;
20462;SDS011;10390;53.566;9.980;2022-12-18T05:28:19;7.05;;;4.50;;
20462;SDS011;10390;53.566;9.980;2022-12-18T05:30:48;6.13;;;4.20;;
20462;SDS011;10390;53.566;9.980;2022-12-18T05:33:15;6.05;;;4.50;;
20462;SDS011;10390;53.566;9.980;2022-12-18T05:35:42;5.65;;;4.00;;
20462;SDS011;10390;53.566;9.980;2022-12-18T05:38:07;5.38;;;3.92;;
20462;SDS011;10390;53.566;9.980;2022-12-18T05:40:33;6.15;;;4.50;;
20462;SDS011;10390;53.566;9.980;2022-12-18T05:42:58;6.40;;;4.32;;
20462;SDS011;10390;53.566;9.980;2022-12-18T05:45:24;6.05;;;4.05;;
20462;SDS011;10390;53.566;9.980;2022-12-18T05:47:50;5.75;;;4.00;;
20462;SDS011;10390;53.566;9.980;2022-12-18T05:50:15;5.10;;;3.80;;
20462;SDS011;10390;53.566;9.980;2022-12-18T05:52:41;5.65;;;3.95;;
20462;SDS011;10390;53.566;9.980;2022-12-18T05:55:07;5.28;;;3.80;;
20462;SDS011;10390;53.566;9.980;2022-12-18T05:57:32;5.00;;;3.60;;
20462;SDS011;10390;53.566;9.980;2022-12-18T05:59:58;5.05;;;3.78;;
20462;SDS011;10390;53.566;9.980;2022-12-18T06:02:24;5.40;;;3.83;;
20462;SDS011;10390;53.566;9.980;2022-12-18T06:04:49;5.82;;;4.03;;
20462;SDS011;10390;53.566;9.980;2022-12-18T06:07:15;5.22;;;3.58;;
20462;SDS011;10390;53.566;9.980;2022-12-18T06:09:40;5.45;;;3.78;;
20462;SDS011;10390;53.566;9.980;2022-12-18T06:12:06;5.32;;;3.55;;
20462;SDS011;10390;53.566;9.980;2022-12-18T06:14:32;5.50;;;3.75;;
20462;SDS011;10390;53.566;9.980;2022-12-18T06:16:57;5.03;;;3.53;;
20462;SDS011;10390;53.566;9.980;2022-12-18T06:19:23;6.57;;;3.67;;
20462;SDS011;10390;53.566;9.980;2022-12-18T06:21:48;5.80;;;3.90;;
20462;SDS011;10390;53.566;9.980;2022-12-18T06:24:15;5.32;;;3.92;;
20462;SDS011;10390;53.566;9.980;2022-12-18T06:26:40;5.35;;;3.83;;
20462;SDS011;10390;53.566;9.980;2022-12-18T06:29:06;6.10;;;4.20;;
20462;SDS011;10390;53.566;9.980;2022-12-18T06:31:32;5.60;;;3.78;;
20462;SDS011;10390;53.566;9.980;2022-12-18T06:33:58;6.43;;;4.20;;
20462;SDS011;10390;53.566;9.980;2022-12-18T06:36:23;5.30;;;3.80;;
20462;SDS011;10390;53.566;9.980;2022-12-18T06:38:49;5.63;;;3.58;;
20462;SDS011;10390;53.566;9.980;2022-12-18T06:41:19;5.32;;;3.70;;
20462;SDS011;10390;53.566;9.980;2022-12-18T06:43:45;5.15;;;3.63;;
20462;SDS011;10390;53.566;9.980;2022-12-18T06:46:11;5.70;;;3.55;;
20462;SDS011;10390;53.566;9.980;2022-12-18T06:48:37;5.10;;;3.45;;
20462;SDS011;10390;53.566;9.980;2022-12-18T06:51:03;5.07;;;3.55;;
20462;SDS011;10390;53.566;9.980;2022-12-18T06:53:29;6.00;;;3.60;;
20462;SDS011;10390;53.566;9.980;2022-12-18T06:56:03;5.57;;;3.70;;
20462;SDS011;10390;53.566;9.980;2022-12-18T06:58:30;5.40;;;3.70;;
20462;SDS011;10390;53.566;9.980;2022-12-18T07:01:00;4.97;;;3.40;;
20462;SDS011;10390;53.566;9.980;2022-12-18T07:03:26;4.78;;;3.53;;
20462;SDS011;10390;53.566;9.980;2022-12-18T07:05:52;4.70;;;3.17;;
20462;SDS011;10390;53.566;9.980;2022-12-18T07:08:17;4.78;;;3.58;;
20462;SDS011;10390;53.566;9.980;2022-12-18T07:10:43;5.95;;;3.30;;
20462;SDS011;10390;53.566;9.980;2022-12-18T07:13:09;5.32;;;3.50;;
20462;SDS011;10390;53.566;9.980;2022-12-18T07:15:35;4.80;;;3.60;;
20462;SDS011;10390;53.566;9.980;2022-12-18T07:18:00;5.30;;;3.70;;
20462;SDS011;10390;53.566;9.980;2022-12-18T07:20:26;5.47;;;3.83;;
20462;SDS011;10390;53.566;9.980;2022-12-18T07:22:51;4.85;;;3.30;;
20462;SDS011;10390;53.566;9.980;2022-12-18T07:25:17;5.03;;;3.58;;
20462;SDS011;10390;53.566;9.980;2022-12-18T07:27:43;5.22;;;3.70;;
20462;SDS011;10390;53.566;9.980;2022-12-18T07:30:08;5.20;;;3.58;;
20462;SDS011;10390;53.566;9.980;2022-12-18T07:32:35;5.50;;;3.65;;
20462;SDS011;10390;53.566;9.980;2022-12-18T07:35:00;5.63;;;3.28;;
20462;SDS011;10390;53.566;9.980;2022-12-18T07:37:26;4.63;;;3.20;;
20462;SDS011;10390;53.566;9.980;2022-12-18T07:39:51;5.85;;;3.10;;
20462;SDS011;10390;53.566;9.980;2022-12-18T07:42:17;4.95;;;3.58;;
20462;SDS011;10390;53.566;9.980;2022-12-18T07:44:58;7.28;;;3.70;;
20462;SDS011;10390;53.566;9.980;2022-12-18T07:47:25;5.90;;;3.60;;
20462;SDS011;10390;53.566;9.980;2022-12-18T07:49:51;5.85;;;3.40;;
20462;SDS011;10390;53.566;9.980;2022-12-18T07:52:16;5.90;;;3.50;;
20462;SDS011;10390;53.566;9.980;2022-12-18T07:54:42;4.72;;;3.40;;
20462;SDS011;10390;53.566;9.980;2022-12-18T07:57:08;5.63;;;3.30;;
20462;SDS011;10390;53.566;9.980;2022-12-18T07:59:34;4.80;;;3.20;;
20462;SDS011;10390;53.566;9.980;2022-12-18T08:01:59;5.47;;;3.10;;
20462;SDS011;10390;53.566;9.980;2022-12-18T08:04:25;5.18;;;3.58;;
20462;SDS011;10390;53.566;9.980;2022-12-18T08:06:51;4.72;;;3.10;;
20462;SDS011;10390;53.566;9.980;2022-12-18T08:09:16;4.93;;;3.40;;
20462;SDS011;10390;53.566;9.980;2022-12-18T08:11:42;5.70;;;3.60;;
20462;SDS011;10390;53.566;9.980;2022-12-18T08:14:08;7.35;;;3.70;;
20462;SDS011;10390;53.566;9.980;2022-12-18T08:16:34;4.72;;;3.45;;
20462;SDS011;10390;53.566;9.980;2022-12-18T08:18:59;5.55;;;3.45;;
20462;SDS011;10390;53.566;9.980;2022-12-18T08:21:26;5.38;;;3.05;;
20462;SDS011;10390;53.566;9.980;2022-12-18T08:23:53;6.63;;;3.70;;
20462;SDS011;10390;53.566;9.980;2022-12-18T08:26:22;6.47;;;3.13;;
20462;SDS011;10390;53.566;9.980;2022-12-18T08:28:49;5.35;;;3.60;;
20462;SDS011;10390;53.566;9.980;2022-12-18T08:31:16;6.03;;;3.65;;
20462;SDS011;10390;53.566;9.980;2022-12-18T08:33:42;5.20;;;3.13;;
20462;SDS011;10390;53.566;9.980;2022-12-18T08:36:08;8.13;;;3.30;;
20462;SDS011;10390;53.566;9.980;2022-12-18T08:38:35;5.32;;;3.65;;
20462;SDS011;10390;53.566;9.980;2022-12-18T08:41:05;5.57;;;3.38;;
20462;SDS011;10390;53.566;9.980;2022-12-18T08:43:31;5.90;;;3.28;;
20462;SDS011;10390;53.566;9.980;2022-12-18T08:46:16;4.45;;;2.88;;
20462;SDS011;10390;53.566;9.980;2022-12-18T08:48:42;5.95;;;3.67;;
20462;SDS011;10390;53.566;9.980;2022-12-18T08:51:08;5.88;;;3.40;;
20462;SDS011;10390;53.566;9.980;2022-12-18T08:53:35;7.03;;;3.60;;
20462;SDS011;10390;53.566;9.980;2022-12-18T08:56:01;4.90;;;3.20;;
20462;SDS011;10390;53.566;9.980;2022-12-18T08:58:27;5.70;;;3.63;;
20462;SDS011;10390;53.566;9.980;2022-12-18T09:00:52;6.22;;;3.40;;
20462;SDS011;10390;53.566;9.980;2022-12-18T09:03:18;6.28;;;3.67;;
20462;SDS011;10390;53.566;9.980;2022-12-18T09:05:47;6.13;;;3.30;;
20462;SDS011;10390;53.566;9.980;2022-12-18T09:08:13;6.38;;;3.30;;
20462;SDS011;10390;53.566;9.980;2022-12-18T09:10:42;5.53;;;3.92;;
20462;SDS011;10390;53.566;9.980;2022-12-18T09:13:09;5.18;;;3.55;;
20462;SDS011;10390;53.566;9.980;2022-12-18T09:18:12;6.05;;;3.50;;
20462;SDS011;10390;53.566;9.980;2022-12-18T09:20:39;5.20;;;3.30;;
20462;SDS011;10390;53.566;9.980;2022-12-18T09:23:05;4.95;;;3.03;;
20462;SDS011;10390;53.566;9.980;2022-12-18T09:25:31;5.07;;;3.22;;
20462;SDS011;10390;53.566;9.980;2022-12-18T09:27:59;7.60;;;3.72;;
20462;SDS011;10390;53.566;9.980;2022-12-18T09:30:25;5.43;;;3.50;;
20462;SDS011;10390;53.566;9.980;2022-12-18T09:32:54;7.95;;;3.40;;
20462;SDS011;10390;53.566;9.980;2022-12-18T09:35:20;4.72;;;3.33;;
20462;SDS011;10390;53.566;9.980;2022-12-18T09:37:46;5.70;;;3.60;;
20462;SDS011;10390;53.566;9.980;2022-12-18T09:40:16;6.72;;;3.20;;
20462;SDS011;10390;53.566;9.980;2022-12-18T09:42:45;6.65;;;3.47;;
20462;SDS011;10390;53.566;9.980;2022-12-18T09:45:19;8.45;;;3.97;;
20462;SDS011;10390;53.566;9.980;2022-12-18T09:47:45;7.75;;;3.60;;
20462;SDS011;10390;53.566;9.980;2022-12-18T09:52:59;6.03;;;3.60;;
20462;SDS011;10390;53.566;9.980;2022-12-18T09:55:37;7.95;;;4.00;;
20462;SDS011;10390;53.566;9.980;2022-12-18T10:00:52;5.93;;;3.95;;
20462;SDS011;10390;53.566;9.980;2022-12-18T10:03:18;6.55;;;3.85;;
20462;SDS011;10390;53.566;9.980;2022-12-18T10:19:39;8.48;;;4.22;;
20462;SDS011;10390;53.566;9.980;2022-12-18T10:24:50;5.10;;;3.63;;
20462;SDS011;10390;53.566;9.980;2022-12-18T10:27:27;7.55;;;3.97;;
20462;SDS011;10390;53.566;9.980;2022-12-18T10:29:54;6.43;;;4.47;;
20462;SDS011;10390;53.566;9.980;2022-12-18T10:32:24;6.25;;;4.15;;
20462;SDS011;10390;53.566;9.980;2022-12-18T10:34:53;5.80;;;4.13;;
20462;SDS011;10390;53.566;9.980;2022-12-18T10:37:22;5.95;;;4.05;;
20462;SDS011;10390;53.566;9.980;2022-12-18T10:42:38;6.03;;;3.90;;
20462;SDS011;10390;53.566;9.980;2022-12-18T10:45:09;6.28;;;4.40;;
20462;SDS011;10390;53.566;9.980;2022-12-18T10:47:41;6.40;;;4.00;;
20462;SDS011;10390;53.566;9.980;2022-12-18T10:50:16;6.53;;;3.47;;
20462;SDS011;10390;53.566;9.980;2022-12-18T10:53:01;8.95;;;4.25;;
20462;SDS011;10390;53.566;9.980;2022-12-18T10:55:33;8.38;;;4.22;;
20462;SDS011;10390;53.566;9.980;2022-12-18T11:01:30;7.75;;;3.88;;
20462;SDS011;10390;53.566;9.980;2022-12-18T11:06:17;7.72;;;3.95;;
20462;SDS011;10390;53.566;9.980;2022-12-18T11:09:02;6.32;;;3.75;;
20462;SDS011;10390;53.566;9.980;2022-12-18T11:11:31;7.80;;;4.28;;
20462;SDS011;10390;53.566;9.980;2022-12-18T11:14:05;6.15;;;3.67;;
20462;SDS011;10390;53.566;9.980;2022-12-18T11:16:46;6.65;;;3.97;;
20462;SDS011;10390;53.566;9.980;2022-12-18T11:19:28;9.23;;;4.00;;
20462;SDS011;10390;53.566;9.980;2022-12-18T11:22:00;7.88;;;4.32;;
20462;SDS011;10390;53.566;9.980;2022-12-18T11:24:32;7.20;;;4.20;;
20462;SDS011;10390;53.566;9.980;2022-12-18T11:27:00;10.45;;;4.22;;
20462;SDS011;10390;53.566;9.980;2022-12-18T11:29:32;7.38;;;4.13;;
20462;SDS011;10390;53.566;9.980;2022-12-18T11:37:40;10.50;;;4.60;;
20462;SDS011;10390;53.566;9.980;2022-12-18T11:40:13;8.80;;;4.68;;
20462;SDS011;10390;53.566;9.980;2022-12-18T11:42:45;9.13;;;4.85;;
20462;SDS011;10390;53.566;9.980;2022-12-18T11:45:24;11.43;;;5.03;;
20462;SDS011;10390;53.566;9.980;2022-12-18T11:47:57;10.13;;;5.15;;
20462;SDS011;10390;53.566;9.980;2022-12-18T11:53:01;10.30;;;5.10;;
20462;SDS011;10390;53.566;9.980;2022-12-18T11:55:37;9.80;;;5.30;;
20462;SDS011;10390;53.566;9.980;2022-12-18T12:00:52;12.35;;;5.80;;
20462;SDS011;10390;53.566;9.980;2022-12-18T12:03:51;6.93;;;5.40;;
20462;SDS011;10390;53.566;9.980;2022-12-18T12:14:20;10.30;;;6.32;;
20462;SDS011;10390;53.566;9.980;2022-12-18T12:34:29;15.55;;;6.70;;
20462;SDS011;10390;53.566;9.980;2022-12-18T12:36:56;13.80;;;7.28;;
20462;SDS011;10390;53.566;9.980;2022-12-18T12:39:34;17.48;;;7.05;;
20462;SDS011;10390;53.566;9.980;2022-12-18T12:42:06;15.43;;;7.28;;
20462;SDS011;10390;53.566;9.980;2022-12-18T12:44:59;20.17;;;7.35;;
20462;SDS011;10390;53.566;9.980;2022-12-18T12:47:30;13.25;;;6.85;;
20462;SDS011;10390;53.566;9.980;2022-12-18T12:50:03;20.02;;;6.40;;
20462;SDS011;10390;53.566;9.980;2022-12-18T12:52:41;15.55;;;6.55;;
20462;SDS011;10390;53.566;9.980;2022-12-18T12:55:19;19.52;;;6.93;;
20462;SDS011;10390;53.566;9.980;2022-12-18T12:58:51;26.05;;;7.95;;
20462;SDS011;10390;53.566;9.980;2022-12-18T13:00:56;25.58;;;8.40;;
20462;SDS011;10390;53.566;9.980;2022-12-18T13:03:46;21.10;;;7.32;;
20462;SDS011;10390;53.566;9.980;2022-12-18T13:06:30;18.92;;;6.88;;
20462;SDS011;10390;53.566;9.980;2022-12-18T13:09:05;19.35;;;6.28;;
20462;SDS011;10390;53.566;9.980;2022-12-18T13:11:41;18.50;;;7.07;;
20462;SDS011;10390;53.566;9.980;2022-12-18T13:20:03;19.58;;;7.20;;
20462;SDS011;10390;53.566;9.980;2022-12-18T13:22:34;20.48;;;7.40;;
20462;SDS011;10390;53.566;9.980;2022-12-18T13:25:03;14.50;;;6.53;;
20462;SDS011;10390;53.566;9.980;2022-12-18T13:27:55;13.90;;;6.53;;
20462;SDS011;10390;53.566;9.980;2022-12-18T13:35:39;12.43;;;6.63;;
20462;SDS011;10390;53.566;9.980;2022-12-18T13:38:21;13.63;;;5.88;;
20462;SDS011;10390;53.566;9.980;2022-12-18T13:40:53;12.55;;;5.78;;
20462;SDS011;10390;53.566;9.980;2022-12-18T13:45:47;13.02;;;6.35;;
20462;SDS011;10390;53.566;9.980;2022-12-18T13:48:24;12.95;;;6.50;;
20462;SDS011;10390;53.566;9.980;2022-12-18T13:51:01;14.10;;;6.10;;
20462;SDS011;10390;53.566;9.980;2022-12-18T13:53:33;14.43;;;5.90;;
20462;SDS011;10390;53.566;9.980;2022-12-18T13:56:02;13.68;;;6.10;;
20462;SDS011;10390;53.566;9.980;2022-12-18T13:58:28;12.05;;;6.00;;
20462;SDS011;10390;53.566;9.980;2022-12-18T14:00:54;9.90;;;5.45;;
20462;SDS011;10390;53.566;9.980;2022-12-18T14:03:22;13.75;;;6.72;;
20462;SDS011;10390;53.566;9.980;2022-12-18T14:06:05;11.82;;;6.10;;
20462;SDS011;10390;53.566;9.980;2022-12-18T14:08:35;9.40;;;5.10;;
20462;SDS011;10390;53.566;9.980;2022-12-18T14:11:04;9.93;;;5.60;;
20462;SDS011;10390;53.566;9.980;2022-12-18T14:13:32;13.32;;;5.88;;
20462;SDS011;10390;53.566;9.980;2022-12-18T14:16:02;8.75;;;5.68;;
20462;SDS011;10390;53.566;9.980;2022-12-18T14:18:33;10.30;;;5.47;;
20462;SDS011;10390;53.566;9.980;2022-12-18T14:21:17;7.30;;;5.00;;
20462;SDS011;10390;53.566;9.980;2022-12-18T14:23:45;9.73;;;5.40;;
20462;SDS011;10390;53.566;9.980;2022-12-18T14:26:21;9.38;;;6.10;;
20462;SDS011;10390;53.566;9.980;2022-12-18T14:28:54;8.45;;;5.18;;
20462;SDS011;10390;53.566;9.980;2022-12-18T14:31:30;8.38;;;5.40;;
20462;SDS011;10390;53.566;9.980;2022-12-18T14:33:56;8.38;;;5.30;;
20462;SDS011;10390;53.566;9.980;2022-12-18T14:36:23;8.05;;;4.68;;
20462;SDS011;10390;53.566;9.980;2022-12-18T14:38:51;11.35;;;5.50;;
20462;SDS011;10390;53.566;9.980;2022-12-18T14:41:18;12.38;;;5.32;;
20462;SDS011;10390;53.566;9.980;2022-12-18T14:43:46;10.77;;;5.65;;
20462;SDS011;10390;53.566;9.980;2022-12-18T14:46:27;12.88;;;5.30;;
20462;SDS011;10390;53.566;9.980;2022-12-18T14:48:55;8.00;;;5.35;;
20462;SDS011;10390;53.566;9.980;2022-12-18T14:51:22;9.32;;;5.35;;
20462;SDS011;10390;53.566;9.980;2022-12-18T14:53:54;9.30;;;5.15;;
20462;SDS011;10390;53.566;9.980;2022-12-18T14:56:29;10.25;;;4.80;;
20462;SDS011;10390;53.566;9.980;2022-12-18T14:59:03;10.15;;;5.55;;
20462;SDS011;10390;53.566;9.980;2022-12-18T15:07:04;8.85;;;5.28;;
20462;SDS011;10390;53.566;9.980;2022-12-18T15:09:33;11.48;;;5.60;;
20462;SDS011;10390;53.566;9.980;2022-12-18T15:11:59;9.13;;;5.15;;
20462;SDS011;10390;53.566;9.980;2022-12-18T15:14:32;10.68;;;5.70;;
20462;SDS011;10390;53.566;9.980;2022-12-18T15:17:00;8.73;;;4.57;;
20462;SDS011;10390;53.566;9.980;2022-12-18T15:19:33;9.00;;;5.00;;
20462;SDS011;10390;53.566;9.980;2022-12-18T15:22:04;10.30;;;5.60;;
20462;SDS011;10390;53.566;9.980;2022-12-18T15:24:42;9.25;;;5.22;;
20462;SDS011;10390;53.566;9.980;2022-12-18T15:27:19;10.85;;;5.32;;
20462;SDS011;10390;53.566;9.980;2022-12-18T15:30:00;10.93;;;5.85;;
20462;SDS011;10390;53.566;9.980;2022-12-18T15:32:38;14.32;;;5.22;;
20462;SDS011;10390;53.566;9.980;2022-12-18T15:37:36;10.25;;;5.43;;
20462;SDS011;10390;53.566;9.980;2022-12-18T15:40:05;7.43;;;5.05;;
20462;SDS011;10390;53.566;9.980;2022-12-18T15:42:32;11.35;;;5.68;;
20462;SDS011;10390;53.566;9.980;2022-12-18T15:45:17;10.02;;;5.53;;
20462;SDS011;10390;53.566;9.980;2022-12-18T15:47:43;14.02;;;5.60;;
20462;SDS011;10390;53.566;9.980;2022-12-18T15:50:09;11.48;;;5.55;;
20462;SDS011;10390;53.566;9.980;2022-12-18T15:52:42;11.75;;;5.95;;
20462;SDS011;10390;53.566;9.980;2022-12-18T15:55:16;14.30;;;5.70;;
20462;SDS011;10390;53.566;9.980;2022-12-18T15:58:05;11.02;;;5.28;;
20462;SDS011;10390;53.566;9.980;2022-12-18T16:00:35;12.98;;;5.53;;
20462;SDS011;10390;53.566;9.980;2022-12-18T16:03:03;13.13;;;5.55;;
20462;SDS011;10390;53.566;9.980;2022-12-18T16:05:30;10.40;;;5.07;;
20462;SDS011;10390;53.566;9.980;2022-12-18T16:07:56;10.18;;;5.10;;
20462;SDS011;10390;53.566;9.980;2022-12-18T16:10:22;17.80;;;6.28;;
20462;SDS011;10390;53.566;9.980;2022-12-18T16:12:48;9.23;;;4.93;;
20462;SDS011;10390;53.566;9.980;2022-12-18T16:15:14;8.50;;;4.85;;
20462;SDS011;10390;53.566;9.980;2022-12-18T16:17:41;12.88;;;5.63;;
20462;SDS011;10390;53.566;9.980;2022-12-18T16:20:11;9.07;;;5.40;;
20462;SDS011;10390;53.566;9.980;2022-12-18T16:22:42;12.30;;;6.10;;
20462;SDS011;10390;53.566;9.980;2022-12-18T16:25:14;9.88;;;5.30;;
20462;SDS011;10390;53.566;9.980;2022-12-18T16:27:45;9.65;;;5.20;;
20462;SDS011;10390;53.566;9.980;2022-12-18T16:30:21;12.15;;;5.53;;
20462;SDS011;10390;53.566;9.980;2022-12-18T16:32:53;8.48;;;5.43;;
20462;SDS011;10390;53.566;9.980;2022-12-18T16:35:19;11.60;;;5.47;;
20462;SDS011;10390;53.566;9.980;2022-12-18T16:37:45;14.07;;;6.00;;
20462;SDS011;10390;53.566;9.980;2022-12-18T16:40:12;11.25;;;5.75;;
20462;SDS011;10390;53.566;9.980;2022-12-18T16:42:41;19.50;;;5.78;;
20462;SDS011;10390;53.566;9.980;2022-12-18T16:45:08;9.98;;;5.43;;
20462;SDS011;10390;53.566;9.980;2022-12-18T16:47:36;11.30;;;5.70;;
20462;SDS011;10390;53.566;9.980;2022-12-18T16:50:03;16.02;;;5.65;;
20462;SDS011;10390;53.566;9.980;2022-12-18T16:52:29;11.02;;;5.80;;
20462;SDS011;10390;53.566;9.980;2022-12-18T16:54:55;10.43;;;5.10;;
20462;SDS011;10390;53.566;9.980;2022-12-18T16:57:21;17.42;;;5.95;;